sensor_id;sensor_type;location;lat;lon;timestamp;P1;durP1;ratioP1;P2;durP2;ratioP2
31126;SDS011;17775;57.948;12.514;2022-08-25T00:01:36;7.90;;;2.97;;
31126;SDS011;17775;57.948;12.514;2022-08-25T00:04:05;5.72;;;2.75;;
31126;SDS011;17775;57.948;12.514;2022-08-25T00:06:32;4.15;;;2.90;;
31126;SDS011;17775;57.948;12.514;2022-08-25T00:08:59;7.97;;;3.17;;
31126;SDS011;17775;57.948;12.514;2022-08-25T00:11:29;5.00;;;2.60;;
31126;SDS011;17775;57.948;12.514;2022-08-25T00:13:57;5.43;;;2.55;;
31126;SDS011;17775;57.948;12.514;2022-08-25T00:16:25;4.93;;;3.20;;
31126;SDS011;17775;57.948;12.514;2022-08-25T00:18:53;6.95;;;3.03;;
31126;SDS011;17775;57.948;12.514;2022-08-25T00:21:20;7.85;;;2.63;;
31126;SDS011;17775;57.948;12.514;2022-08-25T00:23:47;5.63;;;2.70;;
31126;SDS011;17775;57.948;12.514;2022-08-25T00:26:14;5.68;;;2.85;;
31126;SDS011;17775;57.948;12.514;2022-08-25T00:28:41;6.78;;;3.10;;
31126;SDS011;17775;57.948;12.514;2022-08-25T00:31:12;4.60;;;3.05;;
31126;SDS011;17775;57.948;12.514;2022-08-25T00:33:39;6.82;;;3.38;;
31126;SDS011;17775;57.948;12.514;2022-08-25T00:36:06;3.67;;;2.75;;
31126;SDS011;17775;57.948;12.514;2022-08-25T00:38:32;3.65;;;2.80;;
31126;SDS011;17775;57.948;12.514;2022-08-25T00:40:59;4.38;;;2.85;;
31126;SDS011;17775;57.948;12.514;2022-08-25T00:43:41;5.07;;;2.80;;
31126;SDS011;17775;57.948;12.514;2022-08-25T00:46:11;6.68;;;2.58;;
31126;SDS011;17775;57.948;12.514;2022-08-25T00:48:41;6.43;;;2.72;;
31126;SDS011;17775;57.948;12.514;2022-08-25T00:51:09;6.07;;;3.17;;
31126;SDS011;17775;57.948;12.514;2022-08-25T00:53:36;4.57;;;3.03;;
31126;SDS011;17775;57.948;12.514;2022-08-25T00:56:04;3.90;;;3.08;;
31126;SDS011;17775;57.948;12.514;2022-08-25T00:58:31;8.35;;;3.70;;
31126;SDS011;17775;57.948;12.514;2022-08-25T01:00:57;4.32;;;2.88;;
31126;SDS011;17775;57.948;12.514;2022-08-25T01:03:25;3.22;;;2.72;;
31126;SDS011;17775;57.948;12.514;2022-08-25T01:06:01;5.57;;;2.70;;
31126;SDS011;17775;57.948;12.514;2022-08-25T01:08:28;4.30;;;3.30;;
31126;SDS011;17775;57.948;12.514;2022-08-25T01:10:58;3.17;;;2.70;;
31126;SDS011;17775;57.948;12.514;2022-08-25T01:13:28;5.10;;;2.55;;
31126;SDS011;17775;57.948;12.514;2022-08-25T01:15:57;3.58;;;2.72;;
31126;SDS011;17775;57.948;12.514;2022-08-25T01:18:24;6.10;;;3.10;;
31126;SDS011;17775;57.948;12.514;2022-08-25T01:20:51;7.45;;;3.17;;
31126;SDS011;17775;57.948;12.514;2022-08-25T01:23:19;4.60;;;3.40;;
31126;SDS011;17775;57.948;12.514;2022-08-25T01:25:50;3.78;;;2.88;;
31126;SDS011;17775;57.948;12.514;2022-08-25T01:28:18;5.40;;;2.90;;
31126;SDS011;17775;57.948;12.514;2022-08-25T01:30:45;4.57;;;2.65;;
31126;SDS011;17775;57.948;12.514;2022-08-25T01:33:11;4.03;;;3.00;;
31126;SDS011;17775;57.948;12.514;2022-08-25T01:35:38;4.85;;;3.20;;
31126;SDS011;17775;57.948;12.514;2022-08-25T01:38:05;3.28;;;2.92;;
31126;SDS011;17775;57.948;12.514;2022-08-25T01:40:33;4.70;;;3.22;;
31126;SDS011;17775;57.948;12.514;2022-08-25T01:43:10;4.28;;;2.80;;
31126;SDS011;17775;57.948;12.514;2022-08-25T01:45:39;5.13;;;3.15;;
31126;SDS011;17775;57.948;12.514;2022-08-25T01:48:06;4.22;;;3.47;;
31126;SDS011;17775;57.948;12.514;2022-08-25T01:50:33;5.38;;;3.05;;
31126;SDS011;17775;57.948;12.514;2022-08-25T01:55:32;4.78;;;2.85;;
31126;SDS011;17775;57.948;12.514;2022-08-25T01:58:17;3.90;;;2.92;;
31126;SDS011;17775;57.948;12.514;2022-08-25T02:00:45;8.13;;;2.70;;
31126;SDS011;17775;57.948;12.514;2022-08-25T02:03:12;6.35;;;3.30;;
31126;SDS011;17775;57.948;12.514;2022-08-25T02:05:44;5.57;;;3.08;;
31126;SDS011;17775;57.948;12.514;2022-08-25T02:08:13;7.18;;;3.30;;
31126;SDS011;17775;57.948;12.514;2022-08-25T02:10:40;4.75;;;3.28;;
31126;SDS011;17775;57.948;12.514;2022-08-25T02:13:06;4.82;;;3.13;;
31126;SDS011;17775;57.948;12.514;2022-08-25T02:15:34;10.13;;;3.60;;
31126;SDS011;17775;57.948;12.514;2022-08-25T02:18:04;5.50;;;3.45;;
31126;SDS011;17775;57.948;12.514;2022-08-25T02:20:30;6.00;;;3.45;;
31126;SDS011;17775;57.948;12.514;2022-08-25T02:22:57;6.13;;;3.08;;
31126;SDS011;17775;57.948;12.514;2022-08-25T02:25:23;4.30;;;3.05;;
31126;SDS011;17775;57.948;12.514;2022-08-25T02:27:50;5.88;;;2.85;;
31126;SDS011;17775;57.948;12.514;2022-08-25T02:30:16;7.32;;;3.13;;
31126;SDS011;17775;57.948;12.514;2022-08-25T02:32:43;4.85;;;3.40;;
31126;SDS011;17775;57.948;12.514;2022-08-25T02:35:09;3.42;;;2.90;;
31126;SDS011;17775;57.948;12.514;2022-08-25T02:37:36;5.47;;;3.17;;
31126;SDS011;17775;57.948;12.514;2022-08-25T02:40:03;11.55;;;3.15;;
31126;SDS011;17775;57.948;12.514;2022-08-25T02:42:30;7.75;;;3.50;;
31126;SDS011;17775;57.948;12.514;2022-08-25T02:44:56;4.38;;;3.00;;
31126;SDS011;17775;57.948;12.514;2022-08-25T02:47:22;5.32;;;3.40;;
31126;SDS011;17775;57.948;12.514;2022-08-25T02:49:52;5.18;;;2.95;;
31126;SDS011;17775;57.948;12.514;2022-08-25T02:52:19;8.07;;;3.20;;
31126;SDS011;17775;57.948;12.514;2022-08-25T02:54:45;3.88;;;3.03;;
31126;SDS011;17775;57.948;12.514;2022-08-25T02:57:11;5.38;;;3.25;;
31126;SDS011;17775;57.948;12.514;2022-08-25T02:59:39;5.07;;;3.10;;
31126;SDS011;17775;57.948;12.514;2022-08-25T03:02:06;5.30;;;3.10;;
31126;SDS011;17775;57.948;12.514;2022-08-25T03:04:32;6.65;;;3.72;;
31126;SDS011;17775;57.948;12.514;2022-08-25T03:07:00;5.18;;;3.05;;
31126;SDS011;17775;57.948;12.514;2022-08-25T03:09:27;5.13;;;3.22;;
31126;SDS011;17775;57.948;12.514;2022-08-25T03:11:54;5.72;;;3.10;;
31126;SDS011;17775;57.948;12.514;2022-08-25T03:14:21;6.10;;;3.60;;
31126;SDS011;17775;57.948;12.514;2022-08-25T03:16:47;7.13;;;3.42;;
31126;SDS011;17775;57.948;12.514;2022-08-25T03:19:14;6.03;;;3.10;;
31126;SDS011;17775;57.948;12.514;2022-08-25T03:21:41;3.88;;;3.28;;
31126;SDS011;17775;57.948;12.514;2022-08-25T03:24:11;4.33;;;2.87;;
31126;SDS011;17775;57.948;12.514;2022-08-25T03:26:38;6.65;;;3.30;;
31126;SDS011;17775;57.948;12.514;2022-08-25T03:29:22;5.78;;;3.30;;
31126;SDS011;17775;57.948;12.514;2022-08-25T03:31:50;5.85;;;3.00;;
31126;SDS011;17775;57.948;12.514;2022-08-25T03:34:17;5.53;;;3.13;;
31126;SDS011;17775;57.948;12.514;2022-08-25T03:36:45;5.00;;;3.03;;
31126;SDS011;17775;57.948;12.514;2022-08-25T03:39:11;4.55;;;3.53;;
31126;SDS011;17775;57.948;12.514;2022-08-25T03:41:38;4.78;;;3.72;;
31126;SDS011;17775;57.948;12.514;2022-08-25T03:44:05;3.65;;;3.20;;
31126;SDS011;17775;57.948;12.514;2022-08-25T03:46:42;4.85;;;2.97;;
31126;SDS011;17775;57.948;12.514;2022-08-25T03:49:10;4.20;;;2.65;;
31126;SDS011;17775;57.948;12.514;2022-08-25T03:51:44;6.93;;;3.10;;
31126;SDS011;17775;57.948;12.514;2022-08-25T03:54:17;5.60;;;3.28;;
31126;SDS011;17775;57.948;12.514;2022-08-25T03:56:43;6.65;;;2.83;;
31126;SDS011;17775;57.948;12.514;2022-08-25T03:59:10;5.55;;;3.85;;
31126;SDS011;17775;57.948;12.514;2022-08-25T04:01:40;4.90;;;3.40;;
31126;SDS011;17775;57.948;12.514;2022-08-25T04:04:08;5.47;;;3.30;;
31126;SDS011;17775;57.948;12.514;2022-08-25T04:06:34;7.00;;;3.20;;
31126;SDS011;17775;57.948;12.514;2022-08-25T04:09:01;4.07;;;3.13;;
31126;SDS011;17775;57.948;12.514;2022-08-25T04:11:27;7.28;;;3.80;;
31126;SDS011;17775;57.948;12.514;2022-08-25T04:13:57;6.80;;;3.67;;
31126;SDS011;17775;57.948;12.514;2022-08-25T04:16:25;7.03;;;3.28;;
31126;SDS011;17775;57.948;12.514;2022-08-25T04:18:52;6.63;;;3.22;;
31126;SDS011;17775;57.948;12.514;2022-08-25T04:21:20;4.75;;;3.63;;
31126;SDS011;17775;57.948;12.514;2022-08-25T04:23:47;4.57;;;3.17;;
31126;SDS011;17775;57.948;12.514;2022-08-25T04:26:15;5.05;;;3.13;;
31126;SDS011;17775;57.948;12.514;2022-08-25T04:28:42;5.90;;;3.50;;
31126;SDS011;17775;57.948;12.514;2022-08-25T04:31:09;3.60;;;2.92;;
31126;SDS011;17775;57.948;12.514;2022-08-25T04:33:36;3.97;;;3.10;;
31126;SDS011;17775;57.948;12.514;2022-08-25T04:36:04;4.20;;;2.97;;
31126;SDS011;17775;57.948;12.514;2022-08-25T04:38:37;6.03;;;3.20;;
31126;SDS011;17775;57.948;12.514;2022-08-25T04:41:05;3.90;;;3.00;;
31126;SDS011;17775;57.948;12.514;2022-08-25T04:43:32;4.50;;;3.35;;
31126;SDS011;17775;57.948;12.514;2022-08-25T04:45:58;5.55;;;3.67;;
31126;SDS011;17775;57.948;12.514;2022-08-25T04:48:25;4.43;;;3.10;;
31126;SDS011;17775;57.948;12.514;2022-08-25T04:50:51;6.43;;;3.05;;
31126;SDS011;17775;57.948;12.514;2022-08-25T04:53:22;5.32;;;3.20;;
31126;SDS011;17775;57.948;12.514;2022-08-25T04:55:49;4.03;;;3.00;;
31126;SDS011;17775;57.948;12.514;2022-08-25T04:58:15;5.35;;;3.10;;
31126;SDS011;17775;57.948;12.514;2022-08-25T05:00:42;4.60;;;3.35;;
31126;SDS011;17775;57.948;12.514;2022-08-25T05:03:09;5.43;;;3.42;;
31126;SDS011;17775;57.948;12.514;2022-08-25T05:05:36;5.22;;;3.33;;
31126;SDS011;17775;57.948;12.514;2022-08-25T05:08:04;6.65;;;3.90;;
31126;SDS011;17775;57.948;12.514;2022-08-25T05:10:37;5.63;;;3.35;;
31126;SDS011;17775;57.948;12.514;2022-08-25T05:13:04;6.28;;;3.40;;
31126;SDS011;17775;57.948;12.514;2022-08-25T05:15:31;5.78;;;3.50;;
31126;SDS011;17775;57.948;12.514;2022-08-25T05:18:16;5.78;;;3.58;;
31126;SDS011;17775;57.948;12.514;2022-08-25T05:20:43;5.18;;;3.38;;
31126;SDS011;17775;57.948;12.514;2022-08-25T05:23:10;5.95;;;3.35;;
31126;SDS011;17775;57.948;12.514;2022-08-25T05:25:37;6.25;;;3.30;;
31126;SDS011;17775;57.948;12.514;2022-08-25T05:28:03;3.38;;;3.03;;
31126;SDS011;17775;57.948;12.514;2022-08-25T05:30:30;5.03;;;2.97;;
31126;SDS011;17775;57.948;12.514;2022-08-25T05:32:59;7.75;;;3.72;;
31126;SDS011;17775;57.948;12.514;2022-08-25T05:35:26;8.15;;;3.20;;
31126;SDS011;17775;57.948;12.514;2022-08-25T05:37:52;8.05;;;3.55;;
31126;SDS011;17775;57.948;12.514;2022-08-25T05:40:18;5.47;;;3.13;;
31126;SDS011;17775;57.948;12.514;2022-08-25T05:42:45;5.40;;;3.55;;
31126;SDS011;17775;57.948;12.514;2022-08-25T05:45:11;7.40;;;3.47;;
31126;SDS011;17775;57.948;12.514;2022-08-25T05:47:45;5.88;;;2.83;;
31126;SDS011;17775;57.948;12.514;2022-08-25T05:50:11;4.40;;;3.28;;
31126;SDS011;17775;57.948;12.514;2022-08-25T05:52:38;6.07;;;3.58;;
31126;SDS011;17775;57.948;12.514;2022-08-25T05:55:05;5.82;;;3.40;;
31126;SDS011;17775;57.948;12.514;2022-08-25T05:57:31;7.25;;;3.95;;
31126;SDS011;17775;57.948;12.514;2022-08-25T05:59:58;6.70;;;4.13;;
31126;SDS011;17775;57.948;12.514;2022-08-25T06:02:25;4.72;;;3.10;;
31126;SDS011;17775;57.948;12.514;2022-08-25T06:05:07;6.10;;;3.13;;
31126;SDS011;17775;57.948;12.514;2022-08-25T06:07:34;5.68;;;3.10;;
31126;SDS011;17775;57.948;12.514;2022-08-25T06:10:02;7.80;;;2.97;;
31126;SDS011;17775;57.948;12.514;2022-08-25T06:12:28;4.32;;;3.10;;
31126;SDS011;17775;57.948;12.514;2022-08-25T06:14:58;5.57;;;3.53;;
31126;SDS011;17775;57.948;12.514;2022-08-25T06:17:25;6.00;;;3.40;;
31126;SDS011;17775;57.948;12.514;2022-08-25T06:19:51;6.03;;;3.28;;
31126;SDS011;17775;57.948;12.514;2022-08-25T06:22:18;7.63;;;2.80;;
31126;SDS011;17775;57.948;12.514;2022-08-25T06:24:45;5.05;;;2.80;;
31126;SDS011;17775;57.948;12.514;2022-08-25T06:27:12;4.75;;;2.83;;
31126;SDS011;17775;57.948;12.514;2022-08-25T06:29:38;6.60;;;3.28;;
31126;SDS011;17775;57.948;12.514;2022-08-25T06:32:07;4.75;;;2.83;;
31126;SDS011;17775;57.948;12.514;2022-08-25T06:34:34;7.50;;;3.30;;
31126;SDS011;17775;57.948;12.514;2022-08-25T06:37:00;4.43;;;2.65;;
31126;SDS011;17775;57.948;12.514;2022-08-25T06:39:27;4.53;;;3.00;;
31126;SDS011;17775;57.948;12.514;2022-08-25T06:41:54;8.63;;;3.42;;
31126;SDS011;17775;57.948;12.514;2022-08-25T06:44:21;8.13;;;3.50;;
31126;SDS011;17775;57.948;12.514;2022-08-25T06:46:48;5.13;;;3.10;;
31126;SDS011;17775;57.948;12.514;2022-08-25T06:49:18;5.70;;;3.13;;
31126;SDS011;17775;57.948;12.514;2022-08-25T06:51:45;8.23;;;3.10;;
31126;SDS011;17775;57.948;12.514;2022-08-25T06:54:11;5.72;;;3.08;;
31126;SDS011;17775;57.948;12.514;2022-08-25T06:56:38;4.93;;;2.58;;
31126;SDS011;17775;57.948;12.514;2022-08-25T06:59:05;7.80;;;3.00;;
31126;SDS011;17775;57.948;12.514;2022-08-25T07:01:33;5.30;;;2.42;;
31126;SDS011;17775;57.948;12.514;2022-08-25T07:04:01;4.55;;;2.90;;
31126;SDS011;17775;57.948;12.514;2022-08-25T07:06:28;4.13;;;2.85;;
31126;SDS011;17775;57.948;12.514;2022-08-25T07:08:56;6.53;;;2.80;;
31126;SDS011;17775;57.948;12.514;2022-08-25T07:11:23;5.00;;;3.28;;
31126;SDS011;17775;57.948;12.514;2022-08-25T07:13:49;6.78;;;2.80;;
31126;SDS011;17775;57.948;12.514;2022-08-25T07:16:17;4.32;;;2.78;;
31126;SDS011;17775;57.948;12.514;2022-08-25T07:18:45;4.82;;;2.85;;
31126;SDS011;17775;57.948;12.514;2022-08-25T07:21:12;5.95;;;3.13;;
31126;SDS011;17775;57.948;12.514;2022-08-25T07:23:39;5.80;;;2.25;;
31126;SDS011;17775;57.948;12.514;2022-08-25T07:26:07;5.43;;;2.53;;
31126;SDS011;17775;57.948;12.514;2022-08-25T07:28:46;4.03;;;2.47;;
31126;SDS011;17775;57.948;12.514;2022-08-25T07:31:15;4.22;;;2.45;;
31126;SDS011;17775;57.948;12.514;2022-08-25T07:33:42;5.03;;;2.63;;
31126;SDS011;17775;57.948;12.514;2022-08-25T07:36:31;5.20;;;2.17;;
31126;SDS011;17775;57.948;12.514;2022-08-25T07:38:58;4.38;;;2.72;;
31126;SDS011;17775;57.948;12.514;2022-08-25T07:41:25;4.63;;;2.38;;
31126;SDS011;17775;57.948;12.514;2022-08-25T07:43:51;4.88;;;2.65;;
31126;SDS011;17775;57.948;12.514;2022-08-25T07:46:18;6.10;;;2.47;;
31126;SDS011;17775;57.948;12.514;2022-08-25T07:48:44;3.90;;;2.35;;
31126;SDS011;17775;57.948;12.514;2022-08-25T07:51:18;3.53;;;2.42;;
31126;SDS011;17775;57.948;12.514;2022-08-25T07:53:45;5.65;;;2.50;;
31126;SDS011;17775;57.948;12.514;2022-08-25T07:56:13;4.75;;;2.30;;
31126;SDS011;17775;57.948;12.514;2022-08-25T07:58:40;4.13;;;2.28;;
31126;SDS011;17775;57.948;12.514;2022-08-25T08:01:11;4.15;;;2.55;;
31126;SDS011;17775;57.948;12.514;2022-08-25T08:03:38;5.03;;;2.28;;
31126;SDS011;17775;57.948;12.514;2022-08-25T08:06:17;4.38;;;1.85;;
31126;SDS011;17775;57.948;12.514;2022-08-25T08:08:44;7.47;;;2.60;;
31126;SDS011;17775;57.948;12.514;2022-08-25T08:11:14;4.70;;;2.03;;
31126;SDS011;17775;57.948;12.514;2022-08-25T08:13:45;3.45;;;2.10;;
31126;SDS011;17775;57.948;12.514;2022-08-25T08:16:17;3.78;;;2.10;;
31126;SDS011;17775;57.948;12.514;2022-08-25T08:18:44;4.93;;;2.00;;
31126;SDS011;17775;57.948;12.514;2022-08-25T08:21:12;3.92;;;2.03;;
31126;SDS011;17775;57.948;12.514;2022-08-25T08:23:44;3.60;;;2.50;;
31126;SDS011;17775;57.948;12.514;2022-08-25T08:26:11;4.53;;;1.92;;
31126;SDS011;17775;57.948;12.514;2022-08-25T08:28:37;4.47;;;2.42;;
31126;SDS011;17775;57.948;12.514;2022-08-25T08:31:03;3.90;;;2.10;;
31126;SDS011;17775;57.948;12.514;2022-08-25T08:33:35;3.38;;;1.88;;
31126;SDS011;17775;57.948;12.514;2022-08-25T08:36:07;4.18;;;1.98;;
31126;SDS011;17775;57.948;12.514;2022-08-25T08:38:35;8.52;;;2.10;;
31126;SDS011;17775;57.948;12.514;2022-08-25T08:43:53;5.00;;;2.30;;
31126;SDS011;17775;57.948;12.514;2022-08-25T08:46:21;5.13;;;2.22;;
31126;SDS011;17775;57.948;12.514;2022-08-25T08:48:55;3.33;;;1.75;;
31126;SDS011;17775;57.948;12.514;2022-08-25T08:51:27;3.97;;;1.98;;
31126;SDS011;17775;57.948;12.514;2022-08-25T08:56:33;5.65;;;2.03;;
31126;SDS011;17775;57.948;12.514;2022-08-25T08:59:14;5.55;;;2.10;;
31126;SDS011;17775;57.948;12.514;2022-08-25T09:01:48;5.57;;;2.10;;
31126;SDS011;17775;57.948;12.514;2022-08-25T09:04:21;6.90;;;2.63;;
31126;SDS011;17775;57.948;12.514;2022-08-25T09:06:49;3.28;;;2.10;;
31126;SDS011;17775;57.948;12.514;2022-08-25T09:09:21;3.53;;;2.00;;
31126;SDS011;17775;57.948;12.514;2022-08-25T09:14:45;5.22;;;1.83;;
31126;SDS011;17775;57.948;12.514;2022-08-25T09:17:56;4.55;;;1.92;;
31126;SDS011;17775;57.948;12.514;2022-08-25T09:23:07;4.10;;;1.73;;
31126;SDS011;17775;57.948;12.514;2022-08-25T09:25:48;4.75;;;2.10;;
31126;SDS011;17775;57.948;12.514;2022-08-25T09:28:20;6.13;;;2.10;;
31126;SDS011;17775;57.948;12.514;2022-08-25T09:30:52;3.70;;;1.90;;
31126;SDS011;17775;57.948;12.514;2022-08-25T09:33:21;3.30;;;2.00;;
31126;SDS011;17775;57.948;12.514;2022-08-25T09:35:48;4.45;;;1.75;;
31126;SDS011;17775;57.948;12.514;2022-08-25T09:38:18;5.85;;;1.73;;
31126;SDS011;17775;57.948;12.514;2022-08-25T09:40:47;4.65;;;1.67;;
31126;SDS011;17775;57.948;12.514;2022-08-25T09:43:18;3.05;;;1.52;;
31126;SDS011;17775;57.948;12.514;2022-08-25T09:45:47;2.95;;;1.83;;
31126;SDS011;17775;57.948;12.514;2022-08-25T09:51:13;3.15;;;1.80;;
31126;SDS011;17775;57.948;12.514;2022-08-25T09:54:03;3.25;;;1.70;;
31126;SDS011;17775;57.948;12.514;2022-08-25T09:56:36;4.32;;;1.58;;
31126;SDS011;17775;57.948;12.514;2022-08-25T10:02:23;3.75;;;1.65;;
31126;SDS011;17775;57.948;12.514;2022-08-25T10:04:51;2.03;;;1.48;;
31126;SDS011;17775;57.948;12.514;2022-08-25T10:07:45;2.45;;;1.40;;
31126;SDS011;17775;57.948;12.514;2022-08-25T10:10:13;3.05;;;1.50;;
31126;SDS011;17775;57.948;12.514;2022-08-25T10:12:43;4.53;;;1.30;;
31126;SDS011;17775;57.948;12.514;2022-08-25T10:15:17;4.18;;;1.60;;
31126;SDS011;17775;57.948;12.514;2022-08-25T10:17:55;5.18;;;1.60;;
31126;SDS011;17775;57.948;12.514;2022-08-25T10:20:24;2.88;;;1.33;;
31126;SDS011;17775;57.948;12.514;2022-08-25T10:23:10;3.97;;;1.83;;
31126;SDS011;17775;57.948;12.514;2022-08-25T10:25:37;3.42;;;1.20;;
31126;SDS011;17775;57.948;12.514;2022-08-25T10:30:58;2.53;;;1.40;;
31126;SDS011;17775;57.948;12.514;2022-08-25T10:35:58;3.88;;;1.42;;
31126;SDS011;17775;57.948;12.514;2022-08-25T10:40:57;2.03;;;1.30;;
31126;SDS011;17775;57.948;12.514;2022-08-25T11:01:07;2.60;;;1.35;;
31126;SDS011;17775;57.948;12.514;2022-08-25T11:03:58;2.20;;;0.90;;
31126;SDS011;17775;57.948;12.514;2022-08-25T11:08:55;3.58;;;1.10;;
31126;SDS011;17775;57.948;12.514;2022-08-25T11:11:27;3.20;;;1.10;;
31126;SDS011;17775;57.948;12.514;2022-08-25T11:13:57;2.35;;;1.10;;
31126;SDS011;17775;57.948;12.514;2022-08-25T11:19:29;4.18;;;1.40;;
31126;SDS011;17775;57.948;12.514;2022-08-25T11:24:39;4.47;;;1.20;;
31126;SDS011;17775;57.948;12.514;2022-08-25T11:29:32;3.35;;;1.20;;
31126;SDS011;17775;57.948;12.514;2022-08-25T11:32:01;2.17;;;1.20;;
31126;SDS011;17775;57.948;12.514;2022-08-25T11:34:32;1.88;;;1.13;;
31126;SDS011;17775;57.948;12.514;2022-08-25T11:37:22;2.13;;;1.10;;
31126;SDS011;17775;57.948;12.514;2022-08-25T11:42:31;2.70;;;1.25;;
31126;SDS011;17775;57.948;12.514;2022-08-25T11:50:27;3.85;;;0.95;;
31126;SDS011;17775;57.948;12.514;2022-08-25T11:53:15;2.03;;;0.90;;
31126;SDS011;17775;57.948;12.514;2022-08-25T11:55:55;1.83;;;1.10;;
31126;SDS011;17775;57.948;12.514;2022-08-25T12:00:56;2.83;;;1.20;;
31126;SDS011;17775;57.948;12.514;2022-08-25T12:06:14;2.97;;;1.13;;
31126;SDS011;17775;57.948;12.514;2022-08-25T12:14:52;2.75;;;1.38;;
31126;SDS011;17775;57.948;12.514;2022-08-25T12:21:50;4.20;;;1.80;;
31126;SDS011;17775;57.948;12.514;2022-08-25T12:24:19;3.75;;;1.58;;
31126;SDS011;17775;57.948;12.514;2022-08-25T12:29:56;3.08;;;1.55;;
31126;SDS011;17775;57.948;12.514;2022-08-25T12:32:11;2.33;;;1.50;;
31126;SDS011;17775;57.948;12.514;2022-08-25T12:37:12;2.33;;;1.83;;
31126;SDS011;17775;57.948;12.514;2022-08-25T12:42:31;2.17;;;1.60;;
31126;SDS011;17775;57.948;12.514;2022-08-25T12:45:27;4.55;;;1.50;;
31126;SDS011;17775;57.948;12.514;2022-08-25T12:48:36;2.13;;;1.52;;
31126;SDS011;17775;57.948;12.514;2022-08-25T12:50:44;3.20;;;1.50;;
31126;SDS011;17775;57.948;12.514;2022-08-25T12:55:50;2.47;;;1.60;;
31126;SDS011;17775;57.948;12.514;2022-08-25T12:58:17;1.77;;;1.55;;
31126;SDS011;17775;57.948;12.514;2022-08-25T13:00:50;2.55;;;1.52;;
31126;SDS011;17775;57.948;12.514;2022-08-25T13:13:44;1.92;;;1.48;;
31126;SDS011;17775;57.948;12.514;2022-08-25T13:16:16;2.55;;;1.60;;
31126;SDS011;17775;57.948;12.514;2022-08-25T13:18:43;2.00;;;1.75;;
31126;SDS011;17775;57.948;12.514;2022-08-25T13:23:47;2.17;;;1.65;;
31126;SDS011;17775;57.948;12.514;2022-08-25T13:26:16;3.17;;;1.30;;
31126;SDS011;17775;57.948;12.514;2022-08-25T13:28:49;1.85;;;1.20;;
31126;SDS011;17775;57.948;12.514;2022-08-25T13:31:18;1.60;;;1.17;;
31126;SDS011;17775;57.948;12.514;2022-08-25T13:33:51;3.05;;;1.60;;
31126;SDS011;17775;57.948;12.514;2022-08-25T13:36:20;2.38;;;1.30;;
31126;SDS011;17775;57.948;12.514;2022-08-25T13:39:19;1.30;;;1.17;;
31126;SDS011;17775;57.948;12.514;2022-08-25T13:42:10;2.15;;;1.42;;
31126;SDS011;17775;57.948;12.514;2022-08-25T13:44:38;1.52;;;1.25;;
31126;SDS011;17775;57.948;12.514;2022-08-25T13:47:31;1.70;;;1.30;;
31126;SDS011;17775;57.948;12.514;2022-08-25T13:52:43;2.15;;;1.33;;
31126;SDS011;17775;57.948;12.514;2022-08-25T13:55:12;1.67;;;1.20;;
31126;SDS011;17775;57.948;12.514;2022-08-25T13:57:45;2.78;;;1.40;;
31126;SDS011;17775;57.948;12.514;2022-08-25T14:00:12;1.75;;;1.38;;
31126;SDS011;17775;57.948;12.514;2022-08-25T14:02:43;3.20;;;1.25;;
31126;SDS011;17775;57.948;12.514;2022-08-25T14:05:15;1.40;;;1.00;;
31126;SDS011;17775;57.948;12.514;2022-08-25T14:07:53;2.97;;;1.20;;
31126;SDS011;17775;57.948;12.514;2022-08-25T14:10:41;2.25;;;1.30;;
31126;SDS011;17775;57.948;12.514;2022-08-25T14:13:13;2.17;;;1.30;;
31126;SDS011;17775;57.948;12.514;2022-08-25T14:15:41;1.23;;;1.05;;
31126;SDS011;17775;57.948;12.514;2022-08-25T14:20:42;2.05;;;1.20;;
31126;SDS011;17775;57.948;12.514;2022-08-25T14:23:12;2.28;;;1.27;;
31126;SDS011;17775;57.948;12.514;2022-08-25T14:25:44;1.50;;;1.40;;
31126;SDS011;17775;57.948;12.514;2022-08-25T14:28:13;4.55;;;1.45;;
31126;SDS011;17775;57.948;12.514;2022-08-25T14:30:41;3.70;;;1.50;;
31126;SDS011;17775;57.948;12.514;2022-08-25T14:33:11;5.43;;;1.50;;
31126;SDS011;17775;57.948;12.514;2022-08-25T14:35:38;3.22;;;1.15;;
31126;SDS011;17775;57.948;12.514;2022-08-25T14:38:09;3.17;;;1.17;;
31126;SDS011;17775;57.948;12.514;2022-08-25T14:40:36;1.95;;;1.30;;
31126;SDS011;17775;57.948;12.514;2022-08-25T14:43:06;2.88;;;1.42;;
31126;SDS011;17775;57.948;12.514;2022-08-25T14:45:35;2.83;;;1.52;;
31126;SDS011;17775;57.948;12.514;2022-08-25T14:48:06;3.90;;;1.40;;
31126;SDS011;17775;57.948;12.514;2022-08-25T14:50:35;1.98;;;1.35;;
31126;SDS011;17775;57.948;12.514;2022-08-25T14:53:02;1.83;;;1.63;;
31126;SDS011;17775;57.948;12.514;2022-08-25T14:55:30;2.80;;;1.60;;
31126;SDS011;17775;57.948;12.514;2022-08-25T14:57:57;1.63;;;1.23;;
31126;SDS011;17775;57.948;12.514;2022-08-25T15:00:24;2.38;;;1.35;;
31126;SDS011;17775;57.948;12.514;2022-08-25T15:02:51;1.58;;;1.10;;
31126;SDS011;17775;57.948;12.514;2022-08-25T15:05:27;1.75;;;1.27;;
31126;SDS011;17775;57.948;12.514;2022-08-25T15:07:55;2.03;;;1.38;;
31126;SDS011;17775;57.948;12.514;2022-08-25T15:10:40;2.05;;;1.30;;
31126;SDS011;17775;57.948;12.514;2022-08-25T15:13:08;2.40;;;1.23;;
31126;SDS011;17775;57.948;12.514;2022-08-25T15:15:36;2.03;;;1.20;;
31126;SDS011;17775;57.948;12.514;2022-08-25T15:18:03;1.30;;;1.15;;
31126;SDS011;17775;57.948;12.514;2022-08-25T15:20:31;1.20;;;1.10;;
31126;SDS011;17775;57.948;12.514;2022-08-25T15:22:58;2.08;;;1.30;;
31126;SDS011;17775;57.948;12.514;2022-08-25T15:25:24;2.45;;;1.45;;
31126;SDS011;17775;57.948;12.514;2022-08-25T15:27:52;4.30;;;1.45;;
31126;SDS011;17775;57.948;12.514;2022-08-25T15:30:19;2.20;;;1.20;;
31126;SDS011;17775;57.948;12.514;2022-08-25T15:32:56;2.05;;;0.90;;
31126;SDS011;17775;57.948;12.514;2022-08-25T15:35:23;1.38;;;1.27;;
31126;SDS011;17775;57.948;12.514;2022-08-25T15:37:54;1.45;;;1.20;;
31126;SDS011;17775;57.948;12.514;2022-08-25T15:40:20;2.28;;;1.02;;
31126;SDS011;17775;57.948;12.514;2022-08-25T15:42:47;1.67;;;1.10;;
31126;SDS011;17775;57.948;12.514;2022-08-25T15:45:13;3.05;;;1.02;;
31126;SDS011;17775;57.948;12.514;2022-08-25T15:47:39;1.92;;;1.10;;
31126;SDS011;17775;57.948;12.514;2022-08-25T15:50:08;1.90;;;1.23;;
31126;SDS011;17775;57.948;12.514;2022-08-25T15:52:35;2.05;;;1.20;;
31126;SDS011;17775;57.948;12.514;2022-08-25T15:55:13;2.50;;;1.40;;
31126;SDS011;17775;57.948;12.514;2022-08-25T15:57:40;3.70;;;1.35;;
31126;SDS011;17775;57.948;12.514;2022-08-25T16:00:08;1.90;;;1.52;;
31126;SDS011;17775;57.948;12.514;2022-08-25T16:02:41;1.92;;;1.10;;
31126;SDS011;17775;57.948;12.514;2022-08-25T16:05:10;2.85;;;0.95;;
31126;SDS011;17775;57.948;12.514;2022-08-25T16:07:38;3.33;;;1.30;;
31126;SDS011;17775;57.948;12.514;2022-08-25T16:10:05;2.05;;;1.33;;
31126;SDS011;17775;57.948;12.514;2022-08-25T16:12:31;1.88;;;0.93;;
31126;SDS011;17775;57.948;12.514;2022-08-25T16:14:58;3.38;;;1.08;;
31126;SDS011;17775;57.948;12.514;2022-08-25T16:17:24;2.85;;;0.90;;
31126;SDS011;17775;57.948;12.514;2022-08-25T16:19:51;3.30;;;1.23;;
31126;SDS011;17775;57.948;12.514;2022-08-25T16:22:18;3.17;;;1.45;;
31126;SDS011;17775;57.948;12.514;2022-08-25T16:24:44;1.83;;;1.00;;
31126;SDS011;17775;57.948;12.514;2022-08-25T16:27:11;3.88;;;1.00;;
31126;SDS011;17775;57.948;12.514;2022-08-25T16:29:39;1.50;;;0.70;;
31126;SDS011;17775;57.948;12.514;2022-08-25T16:32:06;1.83;;;1.08;;
31126;SDS011;17775;57.948;12.514;2022-08-25T16:34:33;1.38;;;0.65;;
31126;SDS011;17775;57.948;12.514;2022-08-25T16:37:01;2.95;;;0.70;;